createdAt,value
2023-05-12T00:04:08.713Z,9.10
2023-05-12T00:09:10.619Z,9.17
2023-05-12T00:14:12.292Z,9.09
2023-05-12T00:19:13.953Z,8.93
2023-05-12T00:24:15.688Z,8.98
2023-05-12T00:29:18.446Z,8.99
2023-05-12T00:34:20.116Z,8.99
2023-05-12T00:39:21.914Z,9.04
2023-05-12T00:44:23.638Z,9.07
2023-05-12T00:49:26.978Z,9.02
2023-05-12T00:54:30.283Z,9.06
2023-05-12T00:59:32.135Z,8.99
2023-05-12T01:04:35.277Z,9.10
2023-05-12T01:09:37.479Z,9.19
2023-05-12T01:14:41.393Z,9.31
2023-05-12T01:19:53.644Z,9.33
2023-05-12T01:24:58.306Z,9.26
2023-05-12T01:30:03.990Z,9.32
2023-05-12T01:35:09.361Z,9.31
2023-05-12T01:40:14.038Z,9.16
2023-05-12T01:45:15.696Z,8.99
2023-05-12T01:50:17.479Z,8.84
2023-05-12T01:55:19.549Z,8.66
2023-05-12T02:00:27.301Z,8.41
2023-05-12T02:05:31.609Z,8.17
2023-05-12T02:10:34.454Z,7.90
2023-05-12T02:15:36.123Z,7.69
2023-05-12T02:20:38.080Z,7.61
2023-05-12T02:25:40.034Z,7.57
2023-05-12T02:30:49.069Z,7.54
2023-05-12T02:35:51.286Z,7.53
2023-05-12T02:40:53.009Z,7.41
2023-05-12T02:45:55.865Z,7.29
2023-05-12T02:50:57.604Z,7.19
2023-05-12T02:55:59.419Z,7.12
2023-05-12T03:01:10.168Z,7.27
2023-05-12T03:06:13.744Z,7.41
2023-05-12T03:11:15.518Z,7.59
2023-05-12T03:16:19.739Z,7.60
2023-05-12T03:21:22.467Z,7.66
2023-05-12T03:26:24.175Z,7.77
2023-05-12T03:31:26.152Z,7.85
2023-05-12T03:36:28.021Z,7.89
2023-05-12T03:41:31.429Z,7.97
2023-05-12T03:46:33.407Z,8.02
2023-05-12T03:51:35.151Z,8.07
2023-05-12T03:56:36.785Z,8.07
2023-05-12T04:01:38.832Z,8.12
2023-05-12T04:06:40.553Z,8.17
2023-05-12T04:11:42.738Z,8.21
2023-05-12T04:16:44.346Z,8.27
2023-05-12T04:21:46.183Z,8.31
2023-05-12T04:26:47.858Z,8.32
2023-05-12T04:31:49.642Z,8.50
2023-05-12T04:36:51.594Z,8.63
2023-05-12T04:41:54.165Z,8.78
2023-05-12T04:46:56.633Z,9.15
2023-05-12T04:51:58.797Z,9.50
2023-05-12T04:57:00.494Z,9.86
2023-05-12T05:02:02.415Z,10.16
2023-05-12T05:07:04.550Z,10.36
2023-05-12T05:12:07.595Z,10.64
2023-05-12T05:17:11.282Z,10.78
2023-05-12T05:22:13.956Z,10.97
2023-05-12T05:27:15.757Z,11.20
2023-05-12T05:32:18.240Z,11.44
2023-05-12T05:37:20.357Z,11.69
2023-05-12T05:42:22.036Z,11.88
2023-05-12T05:47:24.507Z,12.26
2023-05-12T05:52:26.325Z,12.43
2023-05-12T05:57:28.290Z,12.69
2023-05-12T06:02:33.398Z,12.78
2023-05-12T06:07:35.408Z,12.90
2023-05-12T06:12:40.513Z,13.24
2023-05-12T06:17:42.197Z,13.55
2023-05-12T06:22:44.429Z,13.75
2023-05-12T06:27:46.195Z,14.32
2023-05-12T06:32:47.875Z,14.23
2023-05-12T06:37:50.756Z,14.63
2023-05-12T06:42:52.422Z,14.58
2023-05-12T06:47:55.528Z,14.55
2023-05-12T06:52:57.171Z,14.08
2023-05-12T06:57:58.792Z,13.93
2023-05-12T07:03:00.493Z,14.09
2023-05-12T07:08:02.100Z,14.08
2023-05-12T07:13:04.376Z,14.27
2023-05-12T07:18:06.340Z,14.74
2023-05-12T07:23:09.257Z,15.05
2023-05-12T07:28:11.444Z,15.49
2023-05-12T07:33:13.391Z,15.41
2023-05-12T07:38:15.393Z,15.30
2023-05-12T07:43:17.516Z,15.38
2023-05-12T07:48:19.622Z,15.99
2023-05-12T07:53:21.255Z,16.26
2023-05-12T07:58:22.913Z,16.51
2023-05-12T08:03:24.547Z,17.21
2023-05-12T08:08:26.248Z,16.42
2023-05-12T08:13:27.974Z,16.95
2023-05-12T08:18:30.096Z,17.45
2023-05-12T08:23:31.902Z,18.02
2023-05-12T08:28:34.197Z,18.07
2023-05-12T08:33:36.495Z,18.23
2023-05-12T08:38:38.237Z,17.56
2023-05-12T08:43:50.928Z,17.66
2023-05-12T08:48:55.480Z,17.86
2023-05-12T08:53:57.310Z,17.84
2023-05-12T08:59:00.969Z,17.09
2023-05-12T09:04:06.078Z,17.67
2023-05-12T09:09:07.972Z,18.11
2023-05-12T09:14:18.056Z,18.40
2023-05-12T09:19:21.292Z,17.86
2023-05-12T09:24:37.306Z,17.61
2023-05-12T09:29:58.571Z,17.82
2023-05-12T09:35:11.461Z,19.05
2023-05-12T09:40:13.852Z,19.42
2023-05-12T09:45:15.566Z,20.66
2023-05-12T09:50:18.908Z,19.37
2023-05-12T09:55:21.123Z,20.14
2023-05-12T10:00:38.595Z,21.32
2023-05-12T10:05:57.565Z,20.30
2023-05-12T10:11:01.952Z,19.82
2023-05-12T10:16:04.750Z,19.48
2023-05-12T10:21:08.154Z,19.59
2023-05-12T10:26:11.427Z,19.89
2023-05-12T10:31:13.872Z,19.81
2023-05-12T10:36:19.677Z,20.11
2023-05-12T10:41:35.316Z,20.03
2023-05-12T10:46:37.478Z,20.36
2023-05-12T10:51:47.978Z,19.83
2023-05-12T10:56:50.162Z,19.33
2023-05-12T11:02:05.460Z,19.30
2023-05-12T11:07:09.989Z,19.95
2023-05-12T11:12:12.967Z,23.28
2023-05-12T11:17:15.892Z,25.86
2023-05-12T11:22:20.253Z,23.28
2023-05-12T11:27:23.489Z,22.13
2023-05-12T11:32:25.461Z,23.06
2023-05-12T11:37:27.117Z,23.47
2023-05-12T11:42:28.736Z,22.01
2023-05-12T11:47:30.472Z,21.81
2023-05-12T11:52:32.203Z,20.95
2023-05-12T11:57:37.809Z,21.01
2023-05-12T12:02:43.282Z,23.33
2023-05-12T12:07:45.089Z,22.58
2023-05-12T12:12:46.765Z,23.16
2023-05-12T12:17:48.431Z,28.37
2023-05-12T12:22:50.483Z,30.28
2023-05-12T12:27:52.955Z,24.76
2023-05-12T12:32:54.643Z,22.97
2023-05-12T12:37:56.315Z,23.02
2023-05-12T12:42:57.952Z,22.16
2023-05-12T12:47:59.740Z,21.90
2023-05-12T12:53:01.675Z,20.69
2023-05-12T12:58:03.306Z,20.21
2023-05-12T13:03:05.471Z,20.68
2023-05-12T13:08:07.276Z,20.85
2023-05-12T13:13:11.899Z,22.20
2023-05-12T13:18:13.692Z,20.89
2023-05-12T13:23:15.409Z,21.09
2023-05-12T13:28:17.014Z,21.44
2023-05-12T13:33:18.713Z,22.22
2023-05-12T13:38:20.466Z,21.92
2023-05-12T13:43:22.385Z,23.72
2023-05-12T13:48:23.987Z,23.66
2023-05-12T13:53:25.664Z,22.14
2023-05-12T13:58:27.273Z,22.28
2023-05-12T14:03:28.924Z,21.19
2023-05-12T14:08:30.678Z,20.84
2023-05-12T14:13:32.337Z,20.62
2023-05-12T14:18:34.104Z,20.57
2023-05-12T14:23:36.565Z,20.40
2023-05-12T14:28:38.931Z,21.09
2023-05-12T14:33:41.022Z,25.94
2023-05-12T14:38:42.679Z,32.65
2023-05-12T14:43:44.364Z,37.10
2023-05-12T14:48:48.898Z,39.51
2023-05-12T14:53:50.917Z,29.37
2023-05-12T14:58:52.541Z,29.34
2023-05-12T15:03:54.453Z,30.03
2023-05-12T15:08:56.041Z,32.03
2023-05-12T15:13:57.785Z,31.84
2023-05-12T15:18:59.531Z,32.17
2023-05-12T15:24:01.202Z,31.43
2023-05-12T15:29:02.831Z,27.98
2023-05-12T15:34:04.471Z,22.24
2023-05-12T15:39:06.145Z,19.03
2023-05-12T15:44:07.854Z,17.75
2023-05-12T15:49:10.182Z,17.14
2023-05-12T15:54:12.509Z,16.33
2023-05-12T15:59:14.225Z,15.73
2023-05-12T16:04:15.895Z,15.55
2023-05-12T16:09:17.554Z,15.70
2023-05-12T16:14:19.287Z,15.89
2023-05-12T16:19:20.950Z,16.11
2023-05-12T16:24:23.594Z,16.19
2023-05-12T16:29:25.389Z,16.12
2023-05-12T16:34:27.473Z,16.08
2023-05-12T16:39:29.274Z,16.06
2023-05-12T16:44:30.954Z,15.98
2023-05-12T16:49:32.652Z,15.73
2023-05-12T16:54:34.274Z,15.55
2023-05-12T16:59:36.419Z,15.35
2023-05-12T17:04:38.076Z,15.31
2023-05-12T17:09:39.854Z,15.46
2023-05-12T17:14:41.757Z,15.54
2023-05-12T17:19:44.401Z,15.70
2023-05-12T17:24:46.931Z,15.87
2023-05-12T17:29:48.614Z,16.02
2023-05-12T17:34:51.130Z,16.10
2023-05-12T17:39:52.788Z,16.21
2023-05-12T17:44:54.411Z,15.85
2023-05-12T17:49:56.553Z,15.55
2023-05-12T17:54:58.354Z,15.29
2023-05-12T18:00:01.455Z,15.01
2023-05-12T18:05:03.331Z,14.72
2023-05-12T18:10:09.852Z,14.49
2023-05-12T18:15:11.805Z,14.47
2023-05-12T18:20:13.887Z,14.41
2023-05-12T18:25:15.505Z,14.37
2023-05-12T18:30:17.205Z,13.96
2023-05-12T18:35:19.751Z,13.19
2023-05-12T18:40:21.872Z,12.46
2023-05-12T18:45:23.832Z,12.30
2023-05-12T18:50:25.670Z,12.19
2023-05-12T18:55:27.264Z,12.23
2023-05-12T19:00:31.964Z,12.29
2023-05-12T19:05:33.729Z,12.07
2023-05-12T19:10:37.898Z,12.12
2023-05-12T19:15:41.009Z,12.02
2023-05-12T19:20:42.864Z,12.08
2023-05-12T19:25:44.732Z,12.10
2023-05-12T19:30:46.383Z,11.98
2023-05-12T19:35:48.259Z,11.88
2023-05-12T19:40:49.889Z,11.88
2023-05-12T19:45:51.571Z,11.97
2023-05-12T19:50:54.473Z,11.95
2023-05-12T19:55:56.869Z,12.05
2023-05-12T20:00:58.661Z,12.08
2023-05-12T20:06:00.536Z,12.01
2023-05-12T20:11:02.160Z,11.91
2023-05-12T20:16:04.145Z,11.84
2023-05-12T20:21:05.761Z,11.83
2023-05-12T20:26:07.487Z,11.90
2023-05-12T20:31:10.128Z,11.88
2023-05-12T20:36:11.878Z,11.73
2023-05-12T20:41:13.831Z,11.56
2023-05-12T20:46:15.590Z,11.46
2023-05-12T20:51:17.307Z,11.46
2023-05-12T20:56:19.622Z,11.40
2023-05-12T21:01:21.409Z,11.34
2023-05-12T21:06:23.136Z,11.21
2023-05-12T21:11:24.862Z,11.25
2023-05-12T21:16:26.619Z,11.15
2023-05-12T21:21:28.630Z,10.92
2023-05-12T21:26:30.255Z,10.81
2023-05-12T21:31:32.108Z,10.67
2023-05-12T21:36:33.729Z,10.62
2023-05-12T21:41:35.848Z,10.51
2023-05-12T21:46:37.632Z,10.19
2023-05-12T21:51:39.390Z,9.98
2023-05-12T21:56:41.027Z,9.89
2023-05-12T22:01:42.926Z,9.87
2023-05-12T22:06:44.642Z,9.63
2023-05-12T22:11:46.678Z,9.47
2023-05-12T22:16:48.358Z,9.29
2023-05-12T22:21:50.019Z,9.24
2023-05-12T22:26:51.707Z,9.20
2023-05-12T22:31:54.423Z,9.25
2023-05-12T22:36:56.049Z,9.15
2023-05-12T22:41:57.649Z,8.99
2023-05-12T22:46:59.314Z,8.88
2023-05-12T22:52:01.016Z,8.67
2023-05-12T22:57:02.608Z,8.56
2023-05-12T23:02:04.373Z,8.48
2023-05-12T23:07:08.908Z,8.36
2023-05-12T23:12:10.821Z,8.30
2023-05-12T23:17:12.514Z,8.30
2023-05-12T23:22:14.144Z,8.28
2023-05-12T23:27:15.769Z,8.19
2023-05-12T23:32:17.573Z,8.08
2023-05-12T23:37:22.220Z,8.02
2023-05-12T23:42:23.827Z,8.05
2023-05-12T23:47:25.460Z,8.05
2023-05-12T23:52:27.210Z,8.01
2023-05-12T23:57:28.886Z,8.10
